Time;durP1;ratioP1;P1;durP2;ratioP2;P2;SDS_P1;SDS_P2;PMS_P1;PMS_P2;Temp;Humidity;BMP_temperature;BMP_pressure;BME280_temperature;BME280_humidity;BME280_pressure;Samples;Min_cycle;Max_cycle;Signal;HPM_P1;HPM_P2
2022/05/02 00:01:39;;;;;;;7.20;1.30;;;;;;;;;;5037427;28;20068;-67
2022/05/02 00:04:06;;;;;;;4.82;1.45;;;;;;;;;;5040293;28;20037;-67
2022/05/02 00:06:32;;;;;;;2.63;1.00;;;;;;;;;;5039425;28;20098;-68
2022/05/02 00:08:59;;;;;;;4.75;1.30;;;;;;;;;;5038947;28;20076;-67
2022/05/02 00:11:26;;;;;;;7.95;1.77;;;;;;;;;;5037747;28;20137;-68
2022/05/02 00:13:52;;;;;;;5.88;1.60;;;;;;;;;;5021206;28;20056;-68
2022/05/02 00:16:19;;;;;;;4.60;1.20;;;;;;;;;;5038210;28;20047;-67
2022/05/02 00:18:46;;;;;;;4.38;1.20;;;;;;;;;;5038893;28;20044;-67
2022/05/02 00:21:12;;;;;;;4.03;1.23;;;;;;;;;;5039656;28;20041;-68
2022/05/02 00:23:39;;;;;;;5.97;1.63;;;;;;;;;;5026004;28;20041;-70
2022/05/02 00:26:06;;;;;;;4.90;1.20;;;;;;;;;;5020189;28;20128;-66
2022/05/02 00:28:32;;;;;;;4.13;1.60;;;;;;;;;;5021116;28;20045;-64
2022/05/02 00:30:59;;;;;;;3.80;1.33;;;;;;;;;;5020128;28;20039;-68
2022/05/02 00:33:26;;;;;;;9.85;1.30;;;;;;;;;;5019625;28;20095;-68
2022/05/02 00:35:52;;;;;;;5.50;1.15;;;;;;;;;;5020905;28;20485;-68
2022/05/02 00:38:19;;;;;;;4.70;1.40;;;;;;;;;;5018632;28;20473;-68
2022/05/02 00:40:46;;;;;;;5.68;1.50;;;;;;;;;;5000881;28;20528;-68
2022/05/02 00:43:13;;;;;;;3.58;1.30;;;;;;;;;;5018991;28;20045;-67
2022/05/02 00:45:40;;;;;;;5.40;1.20;;;;;;;;;;5017178;28;21991;-68
2022/05/02 00:48:07;;;;;;;6.50;1.70;;;;;;;;;;5001027;28;20084;-68
2022/05/02 00:50:44;;;;;;;5.28;1.50;;;;;;;;;;4999284;28;20425;-65
2022/05/02 00:53:12;;;;;;;5.25;1.73;;;;;;;;;;5018488;28;20046;-65
2022/05/02 00:55:39;;;;;;;7.18;2.05;;;;;;;;;;5017594;28;20050;-66
2022/05/02 00:58:06;;;;;;;7.82;1.60;;;;;;;;;;5017776;28;20033;-67
2022/05/02 01:00:35;;;;;;;4.38;1.45;;;;;;;;;;5014902;28;20041;-67
2022/05/02 01:03:02;;;;;;;3.90;1.33;;;;;;;;;;5017959;28;20790;-67
2022/05/02 01:05:28;;;;;;;4.05;1.38;;;;;;;;;;5015274;28;20037;-67
2022/05/02 01:07:55;;;;;;;4.15;1.30;;;;;;;;;;5016943;28;20049;-67
2022/05/02 01:10:22;;;;;;;3.42;1.30;;;;;;;;;;5016062;28;20049;-66
2022/05/02 01:12:49;;;;;;;6.72;1.60;;;;;;;;;;5017215;28;20491;-66
2022/05/02 01:15:17;;;;;;;6.05;1.40;;;;;;;;;;5018320;28;20046;-66
2022/05/02 01:17:44;;;;;;;3.92;1.10;;;;;;;;;;5017109;28;20770;-66
2022/05/02 01:20:12;;;;;;;2.88;1.10;;;;;;;;;;5016954;28;20037;-66
2022/05/02 01:22:39;;;;;;;4.32;1.30;;;;;;;;;;5017033;28;20129;-67
2022/05/02 01:25:06;;;;;;;6.20;1.40;;;;;;;;;;5018477;28;21646;-66
2022/05/02 01:27:33;;;;;;;4.05;1.15;;;;;;;;;;5017157;28;20183;-68
2022/05/02 01:29:59;;;;;;;4.15;1.50;;;;;;;;;;4999393;28;20045;-69
2022/05/02 01:32:26;;;;;;;4.25;1.75;;;;;;;;;;5016686;28;20037;-63
2022/05/02 01:34:53;;;;;;;11.60;2.55;;;;;;;;;;5017194;28;20743;-65
2022/05/02 01:37:19;;;;;;;6.22;1.65;;;;;;;;;;5016987;28;20041;-68
2022/05/02 01:39:46;;;;;;;6.13;1.95;;;;;;;;;;5015960;28;20041;-65
2022/05/02 01:42:13;;;;;;;6.88;1.35;;;;;;;;;;5017628;28;20042;-67
2022/05/02 01:44:40;;;;;;;5.60;2.20;;;;;;;;;;5017756;28;20502;-65
2022/05/02 01:47:08;;;;;;;4.20;1.30;;;;;;;;;;5018367;28;21117;-66
2022/05/02 01:49:35;;;;;;;2.90;1.00;;;;;;;;;;5000089;28;20111;-66
2022/05/02 01:52:02;;;;;;;7.00;1.50;;;;;;;;;;5017611;28;20026;-66
2022/05/02 01:54:29;;;;;;;7.35;1.40;;;;;;;;;;5016128;28;20111;-66
2022/05/02 01:56:56;;;;;;;5.07;1.38;;;;;;;;;;5019379;28;20154;-66
2022/05/02 01:59:23;;;;;;;5.13;1.45;;;;;;;;;;5019112;28;20044;-64
2022/05/02 02:01:50;;;;;;;4.32;1.33;;;;;;;;;;5020414;28;20064;-63
2022/05/02 02:07:03;;;;;;;3.00;1.23;;;;;;;;;;5021405;28;20099;-67
2022/05/02 02:09:29;;;;;;;6.53;1.40;;;;;;;;;;5003037;28;20180;-67
2022/05/02 02:11:57;;;;;;;3.45;1.30;;;;;;;;;;5021296;28;20308;-66
2022/05/02 02:14:24;;;;;;;5.78;1.80;;;;;;;;;;5022561;28;20090;-63
2022/05/02 02:16:51;;;;;;;7.50;1.67;;;;;;;;;;5022386;28;20095;-64
2022/05/02 02:19:18;;;;;;;6.00;1.80;;;;;;;;;;5022568;28;21205;-63
2022/05/02 02:21:44;;;;;;;5.00;1.85;;;;;;;;;;5021166;28;20046;-64
2022/05/02 02:24:11;;;;;;;5.10;1.60;;;;;;;;;;5002278;28;20127;-66
2022/05/02 02:26:39;;;;;;;4.72;1.55;;;;;;;;;;5021669;28;20040;-65
2022/05/02 02:29:06;;;;;;;5.53;1.52;;;;;;;;;;5021674;28;20084;-65
2022/05/02 02:31:32;;;;;;;6.28;1.63;;;;;;;;;;5020281;28;20429;-64
2022/05/02 02:33:59;;;;;;;5.35;1.40;;;;;;;;;;5020704;28;20044;-64
2022/05/02 02:36:26;;;;;;;5.43;1.42;;;;;;;;;;5020948;28;20085;-64
2022/05/02 02:38:52;;;;;;;5.60;1.50;;;;;;;;;;5022230;28;20037;-64
2022/05/02 02:41:19;;;;;;;3.65;1.40;;;;;;;;;;5008543;28;20053;-64
2022/05/02 02:43:46;;;;;;;4.32;1.40;;;;;;;;;;5021303;28;20522;-64
2022/05/02 02:46:13;;;;;;;7.60;1.77;;;;;;;;;;5021392;28;20151;-65
2022/05/02 02:48:39;;;;;;;6.63;1.63;;;;;;;;;;5008013;28;20217;-65
2022/05/02 02:51:06;;;;;;;4.70;1.38;;;;;;;;;;5020688;28;20067;-65
2022/05/02 02:53:32;;;;;;;6.05;1.67;;;;;;;;;;5020519;28;20040;-64
2022/05/02 02:55:59;;;;;;;8.80;1.90;;;;;;;;;;5019667;28;20152;-66
2022/05/02 02:58:26;;;;;;;4.07;1.63;;;;;;;;;;5021133;28;20136;-65
2022/05/02 03:00:53;;;;;;;5.63;1.88;;;;;;;;;;5020965;28;20045;-66
2022/05/02 03:03:20;;;;;;;3.53;1.45;;;;;;;;;;5020612;28;20045;-66
2022/05/02 03:06:02;;;;;;;6.90;1.42;;;;;;;;;;5020045;28;20051;-66
2022/05/02 03:08:29;;;;;;;5.93;1.50;;;;;;;;;;5017171;28;20041;-64
2022/05/02 03:10:56;;;;;;;3.78;1.55;;;;;;;;;;5019448;28;20494;-64
2022/05/02 03:13:23;;;;;;;5.90;1.55;;;;;;;;;;5021447;28;20175;-65
2022/05/02 03:15:50;;;;;;;4.85;1.83;;;;;;;;;;5020821;28;20045;-66
2022/05/02 03:18:16;;;;;;;8.77;1.90;;;;;;;;;;5021254;28;20044;-65
2022/05/02 03:20:43;;;;;;;5.63;1.60;;;;;;;;;;5020510;28;20041;-65
2022/05/02 03:23:10;;;;;;;4.38;1.60;;;;;;;;;;5030227;28;20056;-64
2022/05/02 03:25:36;;;;;;;6.07;1.58;;;;;;;;;;5039004;28;20087;-64
2022/05/02 03:28:03;;;;;;;3.38;1.30;;;;;;;;;;5038335;28;20045;-64
2022/05/02 03:30:30;;;;;;;6.60;1.50;;;;;;;;;;5037579;28;20095;-65
2022/05/02 03:32:57;;;;;;;2.88;1.20;;;;;;;;;;5040936;28;20049;-64
2022/05/02 03:35:25;;;;;;;4.03;1.33;;;;;;;;;;5039076;28;20048;-65
2022/05/02 03:37:52;;;;;;;5.82;1.48;;;;;;;;;;5039627;28;20041;-64
2022/05/02 03:40:19;;;;;;;4.07;1.35;;;;;;;;;;5039946;28;20041;-64
2022/05/02 03:42:45;;;;;;;4.57;1.33;;;;;;;;;;5038290;28;20037;-64
2022/05/02 03:45:12;;;;;;;3.63;1.70;;;;;;;;;;5035569;28;20045;-63
2022/05/02 03:47:39;;;;;;;7.20;1.80;;;;;;;;;;5039233;28;20033;-63
2022/05/02 03:50:06;;;;;;;7.55;1.40;;;;;;;;;;5039323;28;20052;-64
2022/05/02 03:52:33;;;;;;;3.90;1.42;;;;;;;;;;5037645;28;20953;-67
2022/05/02 03:55:00;;;;;;;5.68;1.77;;;;;;;;;;5039075;28;20041;-66
2022/05/02 03:57:26;;;;;;;6.03;1.63;;;;;;;;;;5019601;28;20037;-68
2022/05/02 03:59:53;;;;;;;4.93;1.48;;;;;;;;;;5038984;28;20886;-67
2022/05/02 04:02:20;;;;;;;6.18;1.70;;;;;;;;;;5038348;28;20041;-66
2022/05/02 04:04:46;;;;;;;7.72;1.55;;;;;;;;;;5039479;28;20061;-66
2022/05/02 04:07:13;;;;;;;7.45;1.52;;;;;;;;;;5038231;28;20140;-66
2022/05/02 04:09:40;;;;;;;5.97;1.67;;;;;;;;;;5037020;28;22114;-65
2022/05/02 04:12:07;;;;;;;5.90;1.77;;;;;;;;;;5038937;28;20041;-65
2022/05/02 04:14:34;;;;;;;5.55;1.60;;;;;;;;;;5038508;28;20033;-66
2022/05/02 04:17:01;;;;;;;3.58;1.50;;;;;;;;;;5039054;28;20033;-64
2022/05/02 04:19:28;;;;;;;4.95;1.60;;;;;;;;;;5036183;28;20156;-65
2022/05/02 04:21:54;;;;;;;3.60;1.40;;;;;;;;;;5038183;28;20036;-68
2022/05/02 04:24:21;;;;;;;5.80;1.90;;;;;;;;;;5038469;28;20052;-66
2022/05/02 04:26:48;;;;;;;4.90;1.85;;;;;;;;;;5038186;28;20045;-65
2022/05/02 04:29:15;;;;;;;6.18;1.60;;;;;;;;;;5038464;28;20041;-65
2022/05/02 04:31:41;;;;;;;3.42;1.30;;;;;;;;;;5036870;28;20037;-65
2022/05/02 04:34:08;;;;;;;5.95;1.50;;;;;;;;;;5039255;28;20039;-65
2022/05/02 04:36:35;;;;;;;5.80;1.52;;;;;;;;;;5036984;28;20092;-66
2022/05/02 04:39:02;;;;;;;6.05;1.70;;;;;;;;;;5038556;28;20130;-65
2022/05/02 04:41:28;;;;;;;5.72;1.45;;;;;;;;;;5017804;28;20087;-66
2022/05/02 04:43:55;;;;;;;6.03;1.42;;;;;;;;;;5038892;28;20052;-65
2022/05/02 04:46:22;;;;;;;4.15;1.55;;;;;;;;;;5037066;28;20033;-65
2022/05/02 04:48:49;;;;;;;6.10;1.75;;;;;;;;;;5020427;28;20048;-65
2022/05/02 04:51:15;;;;;;;7.93;1.58;;;;;;;;;;5038060;28;20045;-65
2022/05/02 04:53:42;;;;;;;6.60;1.80;;;;;;;;;;5037134;28;20589;-66
2022/05/02 04:56:09;;;;;;;4.63;1.33;;;;;;;;;;5038141;28;20049;-65
2022/05/02 04:58:36;;;;;;;4.68;1.50;;;;;;;;;;5035264;28;20045;-65
2022/05/02 05:01:06;;;;;;;5.80;1.48;;;;;;;;;;5036829;28;20421;-65
2022/05/02 05:03:32;;;;;;;8.10;1.77;;;;;;;;;;5017921;28;20053;-65
2022/05/02 05:05:59;;;;;;;4.13;1.60;;;;;;;;;;5018806;28;20036;-66
2022/05/02 05:08:29;;;;;;;4.30;1.50;;;;;;;;;;5036456;28;20147;-66
2022/05/02 05:11:13;;;;;;;5.40;1.52;;;;;;;;;;5036049;28;20044;-66
2022/05/02 05:16:20;;;;;;;6.00;1.50;;;;;;;;;;5035378;28;20175;-65
2022/05/02 05:16:37;;;;;;;8.50;1.77;;;;;;;;;;5035317;28;20723;-66
2022/05/02 05:19:05;;;;;;;8.18;1.45;;;;;;;;;;5018674;28;20036;-66
2022/05/02 05:21:32;;;;;;;3.88;1.77;;;;;;;;;;5036697;28;20037;-66
2022/05/02 05:24:11;;;;;;;4.47;1.52;;;;;;;;;;5010799;28;20059;-66
2022/05/02 05:26:56;;;;;;;6.40;1.60;;;;;;;;;;5037390;28;20056;-65
2022/05/02 05:29:26;;;;;;;9.65;1.58;;;;;;;;;;5036825;28;20064;-66
2022/05/02 05:32:06;;;;;;;3.63;1.35;;;;;;;;;;5040872;28;20036;-65
2022/05/02 05:34:45;;;;;;;4.85;1.70;;;;;;;;;;5022921;28;20053;-66
2022/05/02 05:37:29;;;;;;;6.63;1.75;;;;;;;;;;5042183;28;20047;-67
2022/05/02 05:40:16;;;;;;;6.38;1.60;;;;;;;;;;5040932;28;20044;-65
2022/05/02 05:42:45;;;;;;;7.40;1.67;;;;;;;;;;5040553;28;20045;-65
2022/05/02 05:45:19;;;;;;;9.57;2.25;;;;;;;;;;5042097;28;20041;-64
2022/05/02 05:48:02;;;;;;;5.03;1.80;;;;;;;;;;5040096;28;20116;-65
2022/05/02 05:50:32;;;;;;;7.38;1.85;;;;;;;;;;5040317;28;20033;-65
2022/05/02 05:53:12;;;;;;;8.38;1.52;;;;;;;;;;5040985;28;20037;-65
2022/05/02 05:55:51;;;;;;;6.43;1.65;;;;;;;;;;5040117;28;20163;-65
2022/05/02 05:58:26;;;;;;;5.68;1.90;;;;;;;;;;5040908;28;20056;-65
2022/05/02 06:00:59;;;;;;;6.32;1.80;;;;;;;;;;5039254;28;20358;-65
2022/05/02 06:03:30;;;;;;;8.85;1.80;;;;;;;;;;5041464;28;20551;-65
2022/05/02 06:05:57;;;;;;;8.50;2.20;;;;;;;;;;5041136;28;20453;-65
2022/05/02 06:08:24;;;;;;;5.60;1.98;;;;;;;;;;5040827;28;20120;-65
2022/05/02 06:10:52;;;;;;;5.55;1.63;;;;;;;;;;5021795;28;20123;-65
2022/05/02 06:13:19;;;;;;;7.55;2.10;;;;;;;;;;5040618;28;20510;-65
2022/05/02 06:18:36;;;;;;;5.53;1.90;;;;;;;;;;5041028;28;20090;-66
2022/05/02 06:21:04;;;;;;;5.20;1.88;;;;;;;;;;5042840;28;20037;-65
2022/05/02 06:23:36;;;;;;;5.45;2.17;;;;;;;;;;5041429;28;20049;-65
2022/05/02 06:26:04;;;;;;;6.10;2.00;;;;;;;;;;5023466;28;20039;-66
2022/05/02 06:28:31;;;;;;;6.82;2.25;;;;;;;;;;5023545;28;20298;-66
2022/05/02 06:31:00;;;;;;;5.03;1.80;;;;;;;;;;5041816;28;20043;-66
2022/05/02 06:33:26;;;;;;;10.82;2.10;;;;;;;;;;5038868;28;20049;-66
2022/05/02 06:36:16;;;;;;;9.40;1.90;;;;;;;;;;5040481;28;20037;-66
2022/05/02 06:39:12;;;;;;;8.00;1.70;;;;;;;;;;5038670;28;20037;-66
2022/05/02 06:41:41;;;;;;;4.03;1.48;;;;;;;;;;5020974;28;20034;-66
2022/05/02 06:44:24;;;;;;;5.40;2.00;;;;;;;;;;5040578;28;21713;-63
2022/05/02 06:47:02;;;;;;;5.37;1.77;;;;;;;;;;5022103;28;20052;-65
2022/05/02 06:49:32;;;;;;;6.57;1.70;;;;;;;;;;5021166;28;20128;-65
2022/05/02 06:51:59;;;;;;;6.43;1.70;;;;;;;;;;5039953;28;20043;-65
2022/05/02 06:54:29;;;;;;;6.95;1.42;;;;;;;;;;5039470;28;20162;-65
2022/05/02 06:57:19;;;;;;;4.72;1.35;;;;;;;;;;5021358;28;20040;-65
2022/05/02 06:59:46;;;;;;;5.10;1.38;;;;;;;;;;5040319;28;20115;-65
2022/05/02 07:02:12;;;;;;;8.15;1.80;;;;;;;;;;5040691;28;20047;-65
2022/05/02 07:04:52;;;;;;;7.38;1.85;;;;;;;;;;5039292;28;20045;-65
2022/05/02 07:07:48;;;;;;;4.18;1.65;;;;;;;;;;5039661;28;20041;-65
2022/05/02 07:10:20;;;;;;;4.38;1.65;;;;;;;;;;5039460;28;20057;-64
2022/05/02 07:13:03;;;;;;;5.53;1.77;;;;;;;;;;5038337;28;20405;-65
2022/05/02 07:15:45;;;;;;;7.57;1.70;;;;;;;;;;5038270;28;20238;-65
2022/05/02 07:18:27;;;;;;;4.65;1.85;;;;;;;;;;5039491;28;20513;-65
2022/05/02 07:21:05;;;;;;;4.78;1.55;;;;;;;;;;5038208;28;20501;-64
2022/05/02 07:23:38;;;;;;;8.43;2.00;;;;;;;;;;5037887;28;20136;-64
2022/05/02 07:26:08;;;;;;;7.78;1.65;;;;;;;;;;5039407;28;20128;-64
2022/05/02 07:28:46;;;;;;;6.25;1.92;;;;;;;;;;5038772;28;20599;-64
2022/05/02 07:31:13;;;;;;;8.55;2.00;;;;;;;;;;5039123;28;20068;-64
2022/05/02 07:33:41;;;;;;;5.00;1.83;;;;;;;;;;5038733;28;20075;-64
2022/05/02 07:36:09;;;;;;;8.13;2.00;;;;;;;;;;5040277;28;20043;-65
2022/05/02 07:38:37;;;;;;;6.40;2.10;;;;;;;;;;5037843;28;20501;-64
2022/05/02 07:41:25;;;;;;;5.05;1.98;;;;;;;;;;5039208;28;20033;-64
2022/05/02 07:44:03;;;;;;;5.35;2.17;;;;;;;;;;5038541;28;20113;-64
2022/05/02 07:46:32;;;;;;;5.57;2.05;;;;;;;;;;5038427;28;20119;-64
2022/05/02 07:48:59;;;;;;;6.72;1.85;;;;;;;;;;5038665;28;20075;-64
2022/05/02 07:51:26;;;;;;;6.70;1.75;;;;;;;;;;5037201;28;20140;-64
2022/05/02 07:53:53;;;;;;;8.57;2.00;;;;;;;;;;5039272;28;20109;-65
2022/05/02 07:56:23;;;;;;;5.35;2.22;;;;;;;;;;5038054;28;21853;-65
2022/05/02 07:58:52;;;;;;;6.53;2.17;;;;;;;;;;5038891;28;20036;-64
2022/05/02 08:01:19;;;;;;;6.68;2.10;;;;;;;;;;5036645;28;20047;-64
2022/05/02 08:03:46;;;;;;;5.07;1.88;;;;;;;;;;5038983;28;20588;-64
2022/05/02 08:06:16;;;;;;;4.85;1.90;;;;;;;;;;5038171;28;20067;-64
2022/05/02 08:09:01;;;;;;;5.53;2.10;;;;;;;;;;5037127;28;20056;-65
2022/05/02 08:11:30;;;;;;;8.43;2.50;;;;;;;;;;5036944;28;20041;-64
2022/05/02 08:14:08;;;;;;;11.35;2.42;;;;;;;;;;5038219;28;20053;-64
2022/05/02 08:16:38;;;;;;;11.27;2.40;;;;;;;;;;5037565;28;20040;-63
2022/05/02 08:19:10;;;;;;;5.57;2.13;;;;;;;;;;5038093;28;20041;-63
2022/05/02 08:27:15;;;;;;;9.15;2.50;;;;;;;;;;5036974;28;20045;-64
2022/05/02 08:27:48;;;;;;;8.40;2.50;;;;;;;;;;5010370;28;20048;-65
2022/05/02 08:30:15;;;;;;;9.32;2.63;;;;;;;;;;5012688;28;20040;-64
2022/05/02 08:33:00;;;;;;;7.43;2.58;;;;;;;;;;5037362;28;20123;-64
2022/05/02 08:35:40;;;;;;;5.57;2.10;;;;;;;;;;5035538;28;20048;-64
2022/05/02 08:38:40;;;;;;;6.78;2.40;;;;;;;;;;5038799;28;20401;-64
2022/05/02 08:41:09;;;;;;;8.18;2.53;;;;;;;;;;4981999;28;20040;-65
2022/05/02 08:43:48;;;;;;;8.25;2.30;;;;;;;;;;5038787;28;20397;-64
2022/05/02 08:46:33;;;;;;;23.80;3.67;;;;;;;;;;5039215;28;20041;-64
2022/05/02 08:49:36;;;;;;;12.45;2.63;;;;;;;;;;5037279;28;20490;-64
2022/05/02 08:52:08;;;;;;;10.90;2.83;;;;;;;;;;5038366;28;20056;-65
2022/05/02 08:54:53;;;;;;;8.38;2.50;;;;;;;;;;5037258;28;20041;-65
2022/05/02 08:57:39;;;;;;;8.07;2.80;;;;;;;;;;5037460;28;20045;-66
2022/05/02 09:00:19;;;;;;;8.32;2.80;;;;;;;;;;5037986;28;20053;-65
2022/05/02 09:03:14;;;;;;;6.70;2.63;;;;;;;;;;5037853;28;20044;-65
2022/05/02 09:05:58;;;;;;;6.13;2.53;;;;;;;;;;5038935;28;20596;-65
2022/05/02 09:08:34;;;;;;;7.63;2.42;;;;;;;;;;5041329;28;20517;-65
2022/05/02 09:11:07;;;;;;;4.32;2.10;;;;;;;;;;5041784;28;20083;-65
2022/05/02 09:13:34;;;;;;;9.15;2.50;;;;;;;;;;5041589;28;20397;-65
2022/05/02 09:16:01;;;;;;;7.18;2.40;;;;;;;;;;5041961;28;20045;-65
2022/05/02 09:18:46;;;;;;;17.23;2.38;;;;;;;;;;5039959;28;20094;-65
2022/05/02 09:21:12;;;;;;;11.05;2.38;;;;;;;;;;5041671;28;20048;-65
2022/05/02 09:23:45;;;;;;;8.60;2.40;;;;;;;;;;5026617;28;20049;-65
2022/05/02 09:26:18;;;;;;;6.97;2.17;;;;;;;;;;5023255;28;20505;-65
2022/05/02 09:28:44;;;;;;;4.43;1.77;;;;;;;;;;5021645;28;20301;-65
2022/05/02 09:31:21;;;;;;;9.57;2.50;;;;;;;;;;5022785;28;20033;-65
2022/05/02 09:34:00;;;;;;;6.22;2.15;;;;;;;;;;5021736;28;20033;-65
2022/05/02 09:36:26;;;;;;;5.53;1.92;;;;;;;;;;5021158;28;20490;-64
2022/05/02 09:38:59;;;;;;;6.28;1.75;;;;;;;;;;5022490;28;20095;-65
2022/05/02 09:41:45;;;;;;;6.07;1.85;;;;;;;;;;5020912;28;20045;-65
2022/05/02 09:50:09;;;;;;;4.57;1.50;;;;;;;;;;5020728;28;20068;-65
2022/05/02 09:52:54;;;;;;;3.77;1.50;;;;;;;;;;5019057;28;20076;-65
2022/05/02 09:58:32;;;;;;;5.30;1.67;;;;;;;;;;5007267;28;20545;-65
2022/05/02 10:01:18;;;;;;;4.25;1.60;;;;;;;;;;5020494;28;20079;-66
2022/05/02 10:04:12;;;;;;;4.53;1.77;;;;;;;;;;5023963;28;20045;-65
2022/05/02 10:06:39;;;;;;;5.38;1.50;;;;;;;;;;5020115;28;20041;-64
2022/05/02 10:09:15;;;;;;;4.45;1.38;;;;;;;;;;5022548;28;20120;-64
2022/05/02 10:11:50;;;;;;;3.70;1.40;;;;;;;;;;5003834;28;20532;-64
2022/05/02 10:14:35;;;;;;;5.05;1.67;;;;;;;;;;5022477;28;20371;-64
2022/05/02 10:17:07;;;;;;;4.40;1.50;;;;;;;;;;5020355;28;20045;-64
2022/05/02 10:19:39;;;;;;;4.28;1.52;;;;;;;;;;5020089;28;20168;-63
2022/05/02 10:22:09;;;;;;;3.60;1.60;;;;;;;;;;5020600;28;20045;-63
2022/05/02 10:24:54;;;;;;;6.18;1.90;;;;;;;;;;5019577;28;20383;-64
2022/05/02 10:27:44;;;;;;;7.43;1.60;;;;;;;;;;5020327;28;20041;-66
2022/05/02 10:30:12;;;;;;;4.50;1.60;;;;;;;;;;5007466;28;20057;-65
2022/05/02 10:32:43;;;;;;;3.53;1.40;;;;;;;;;;5020009;28;20041;-65
2022/05/02 10:35:14;;;;;;;6.20;1.58;;;;;;;;;;5020073;28;20052;-65
2022/05/02 10:37:42;;;;;;;3.55;1.45;;;;;;;;;;4995169;28;20045;-66
2022/05/02 10:40:10;;;;;;;5.18;1.40;;;;;;;;;;5020497;28;20564;-66
2022/05/02 10:42:45;;;;;;;5.60;1.70;;;;;;;;;;5020278;28;20045;-66
2022/05/02 10:45:11;;;;;;;10.60;1.60;;;;;;;;;;5020203;28;20129;-65
2022/05/02 10:47:41;;;;;;;5.65;1.60;;;;;;;;;;5019565;28;20064;-66
2022/05/02 10:50:20;;;;;;;4.60;1.60;;;;;;;;;;5020986;28;20395;-66
2022/05/02 10:52:46;;;;;;;3.38;1.42;;;;;;;;;;5020222;28;20052;-65
2022/05/02 10:55:19;;;;;;;3.58;1.52;;;;;;;;;;5021875;28;20038;-65
2022/05/02 10:57:47;;;;;;;4.25;1.60;;;;;;;;;;5020990;28;20597;-66
2022/05/02 11:00:15;;;;;;;5.88;1.70;;;;;;;;;;5020232;28;20144;-64
2022/05/02 11:02:51;;;;;;;5.60;1.60;;;;;;;;;;5019716;28;20045;-65
2022/05/02 11:05:19;;;;;;;4.13;1.60;;;;;;;;;;5021011;28;20049;-65
2022/05/02 11:07:58;;;;;;;5.63;1.75;;;;;;;;;;5019579;28;20041;-66
2022/05/02 11:10:30;;;;;;;8.30;2.10;;;;;;;;;;5018951;28;20049;-66
2022/05/02 11:13:03;;;;;;;5.13;1.77;;;;;;;;;;5019828;28;20048;-65
2022/05/02 11:15:30;;;;;;;;;;;;;;;;;;5020084;28;20553;-65
2022/05/02 11:18:08;;;;;;;4.18;1.83;;;;;;;;;;5020532;28;19921;-65
2022/05/02 11:20:45;;;;;;;3.95;1.77;;;;;;;;;;5018769;28;20111;-65
2022/05/02 11:23:18;;;;;;;4.45;1.88;;;;;;;;;;5030523;28;20577;-65
2022/05/02 11:25:59;;;;;;;5.38;1.75;;;;;;;;;;5039066;28;20052;-65
2022/05/02 11:28:44;;;;;;;4.35;1.70;;;;;;;;;;5039597;28;20063;-65
2022/05/02 11:31:14;;;;;;;6.22;1.77;;;;;;;;;;5040584;28;20532;-65
2022/05/02 11:33:45;;;;;;;5.10;1.73;;;;;;;;;;5040848;28;20045;-64
2022/05/02 11:36:12;;;;;;;5.82;2.17;;;;;;;;;;5039687;28;20136;-66
2022/05/02 11:39:01;;;;;;;4.90;1.92;;;;;;;;;;5038103;28;20071;-67
2022/05/02 11:41:29;;;;;;;12.70;2.53;;;;;;;;;;5038049;28;20061;-65
2022/05/02 11:44:16;;;;;;;8.23;2.20;;;;;;;;;;5021386;28;20152;-65
2022/05/02 11:47:01;;;;;;;8.35;2.00;;;;;;;;;;5036091;28;20075;-64
2022/05/02 11:49:46;;;;;;;6.70;2.22;;;;;;;;;;5038771;28;20053;-65
2022/05/02 11:52:14;;;;;;;8.27;1.95;;;;;;;;;;5039933;28;20690;-65
2022/05/02 11:54:42;;;;;;;5.93;2.58;;;;;;;;;;5039362;28;20118;-65
2022/05/02 11:57:25;;;;;;;5.03;2.33;;;;;;;;;;5040388;28;20101;-65
2022/05/02 11:59:55;;;;;;;4.67;2.10;;;;;;;;;;5039302;28;20064;-65
2022/05/02 12:02:40;;;;;;;4.75;2.05;;;;;;;;;;5038244;28;20620;-65
2022/05/02 12:05:19;;;;;;;10.18;2.90;;;;;;;;;;5040876;28;20040;-65
2022/05/02 12:07:56;;;;;;;7.93;2.83;;;;;;;;;;5038779;28;20513;-65
2022/05/02 12:10:33;;;;;;;10.07;2.55;;;;;;;;;;5039252;28;20044;-65
2022/05/02 12:13:00;;;;;;;4.70;2.72;;;;;;;;;;5038832;28;20128;-65
2022/05/02 12:15:27;;;;;;;8.10;3.13;;;;;;;;;;5040091;28;20601;-65
2022/05/02 12:17:55;;;;;;;7.82;3.28;;;;;;;;;;5039364;28;20120;-62
2022/05/02 12:20:33;;;;;;;8.23;3.42;;;;;;;;;;5037950;28;20075;-63
2022/05/02 12:23:33;;;;;;;9.48;2.95;;;;;;;;;;5038056;28;20069;-63
2022/05/02 12:26:03;;;;;;;16.60;3.05;;;;;;;;;;5003279;28;20045;-62
2022/05/02 12:28:42;;;;;;;11.55;3.00;;;;;;;;;;5037279;28;20122;-63
2022/05/02 12:31:10;;;;;;;12.05;3.13;;;;;;;;;;5039346;28;20094;-62
2022/05/02 12:33:40;;;;;;;8.43;2.88;;;;;;;;;;5038248;28;20032;-62
2022/05/02 12:36:19;;;;;;;8.27;3.10;;;;;;;;;;5038196;28;20750;-63
2022/05/02 12:39:01;;;;;;;7.90;2.95;;;;;;;;;;5037801;28;20118;-65
2022/05/02 12:41:29;;;;;;;18.42;3.50;;;;;;;;;;5037030;28;20037;-63
2022/05/02 12:44:01;;;;;;;6.90;2.72;;;;;;;;;;5038919;28;20126;-63
2022/05/02 12:46:34;;;;;;;8.50;2.85;;;;;;;;;;5039330;28;20037;-63
2022/05/02 12:49:04;;;;;;;7.53;2.80;;;;;;;;;;5021292;28;20123;-63
2022/05/02 12:51:31;;;;;;;5.82;2.53;;;;;;;;;;5037669;28;20052;-63
2022/05/02 12:54:13;;;;;;;4.50;2.10;;;;;;;;;;5038168;28;20097;-64
2022/05/02 13:02:44;;;;;;;7.03;2.33;;;;;;;;;;5038035;28;20067;-66
2022/05/02 13:05:12;;;;;;;6.57;2.50;;;;;;;;;;5038500;28;20073;-64
2022/05/02 13:07:47;;;;;;;7.00;2.40;;;;;;;;;;5037607;28;20037;-64
2022/05/02 13:10:21;;;;;;;6.50;2.88;;;;;;;;;;5038154;28;20048;-65
2022/05/02 13:12:57;;;;;;;6.75;2.90;;;;;;;;;;5037493;28;20159;-62
2022/05/02 13:15:26;;;;;;;6.90;2.53;;;;;;;;;;5037257;28;20145;-61
2022/05/02 13:17:57;;;;;;;8.98;2.60;;;;;;;;;;5038793;28;20037;-63
2022/05/02 13:20:25;;;;;;;8.27;2.70;;;;;;;;;;5035546;28;20049;-64
2022/05/02 13:23:21;;;;;;;4.90;2.13;;;;;;;;;;5037180;28;20052;-63
2022/05/02 13:26:06;;;;;;;6.80;2.97;;;;;;;;;;5012625;28;20045;-64
2022/05/02 13:28:50;;;;;;;9.02;2.55;;;;;;;;;;5036916;28;20056;-65
2022/05/02 13:31:36;;;;;;;5.18;2.50;;;;;;;;;;5037042;28;20068;-66
2022/05/02 13:34:05;;;;;;;6.57;2.47;;;;;;;;;;5037166;28;20045;-65
2022/05/02 13:36:43;;;;;;;9.27;2.75;;;;;;;;;;5036835;28;20090;-64
2022/05/02 13:39:33;;;;;;;12.82;3.17;;;;;;;;;;5020534;28;20478;-65
2022/05/02 13:42:10;;;;;;;9.02;2.58;;;;;;;;;;5036164;28;20497;-65
2022/05/02 13:44:55;;;;;;;10.57;2.50;;;;;;;;;;5037060;28;20148;-65
2022/05/02 13:47:23;;;;;;;6.25;2.80;;;;;;;;;;5036704;28;20068;-64
2022/05/02 13:49:50;;;;;;;10.80;2.80;;;;;;;;;;5038147;28;20684;-65
2022/05/02 13:52:30;;;;;;;6.97;2.90;;;;;;;;;;5039795;28;20067;-65
2022/05/02 13:54:57;;;;;;;11.10;2.92;;;;;;;;;;5040842;28;20078;-65
2022/05/02 13:57:42;;;;;;;7.93;2.78;;;;;;;;;;5040635;28;20037;-65
2022/05/02 14:03:10;;;;;;;11.50;3.00;;;;;;;;;;5040771;28;20095;-65
2022/05/02 14:08:29;;;;;;;10.45;3.00;;;;;;;;;;5040832;28;20048;-65
2022/05/02 14:10:58;;;;;;;8.50;2.80;;;;;;;;;;5041775;28;20068;-66
2022/05/02 14:13:26;;;;;;;6.47;2.67;;;;;;;;;;5041388;28;20112;-64
2022/05/02 14:15:54;;;;;;;4.72;2.25;;;;;;;;;;5040804;28;20164;-65
2022/05/02 14:18:22;;;;;;;9.18;2.65;;;;;;;;;;5040362;28;20044;-65
2022/05/02 14:20:59;;;;;;;12.65;3.15;;;;;;;;;;5041941;28;20118;-65
2022/05/02 14:23:26;;;;;;;6.30;2.35;;;;;;;;;;5040602;28;20053;-65
2022/05/02 14:25:53;;;;;;;8.30;2.50;;;;;;;;;;5043739;28;20041;-65
2022/05/02 14:28:21;;;;;;;7.05;2.40;;;;;;;;;;5042943;28;20497;-65
2022/05/02 14:31:04;;;;;;;12.32;2.53;;;;;;;;;;5043011;28;20540;-64
2022/05/02 14:33:34;;;;;;;10.15;2.33;;;;;;;;;;5041097;28;20052;-65
2022/05/02 14:36:03;;;;;;;6.18;2.45;;;;;;;;;;5042810;28;20059;-65
2022/05/02 14:38:30;;;;;;;10.18;2.85;;;;;;;;;;5042155;28;20044;-65
2022/05/02 14:40:58;;;;;;;5.30;2.30;;;;;;;;;;5041627;28;20041;-65
2022/05/02 14:43:25;;;;;;;7.97;2.90;;;;;;;;;;5040260;28;20661;-65
2022/05/02 14:45:53;;;;;;;9.98;2.90;;;;;;;;;;5042304;28;20703;-65
2022/05/02 14:48:20;;;;;;;7.22;2.45;;;;;;;;;;5039454;28;20048;-65
2022/05/02 14:50:48;;;;;;;7.88;2.53;;;;;;;;;;5042444;28;20072;-66
2022/05/02 14:53:16;;;;;;;5.65;2.67;;;;;;;;;;5039720;28;20056;-66
2022/05/02 14:55:44;;;;;;;9.13;2.63;;;;;;;;;;5039946;28;20054;-66
2022/05/02 14:58:37;;;;;;;6.38;2.60;;;;;;;;;;5040872;28;20431;-66
2022/05/02 15:01:06;;;;;;;6.55;2.70;;;;;;;;;;5019095;28;20045;-65
2022/05/02 15:03:35;;;;;;;9.77;2.53;;;;;;;;;;5037495;28;20044;-65
2022/05/02 15:06:05;;;;;;;11.75;2.15;;;;;;;;;;5039134;28;20063;-65
2022/05/02 15:08:47;;;;;;;10.57;2.40;;;;;;;;;;5038691;28;20412;-66
2022/05/02 15:11:22;;;;;;;9.30;2.25;;;;;;;;;;5039442;28;20040;-66
2022/05/02 15:14:00;;;;;;;5.72;2.05;;;;;;;;;;5038045;28;20395;-65
2022/05/02 15:16:46;;;;;;;7.38;2.20;;;;;;;;;;5037775;28;20041;-65
2022/05/02 15:19:41;;;;;;;7.80;2.10;;;;;;;;;;5039368;28;20056;-65
2022/05/02 15:22:29;;;;;;;5.80;2.15;;;;;;;;;;5019184;28;20401;-66
2022/05/02 15:38:51;;;;;;;4.40;1.80;;;;;;;;;;5038054;28;20072;-66
2022/05/02 15:41:38;;;;;;;6.20;1.70;;;;;;;;;;5039190;28;20116;-66
2022/05/02 15:44:11;;;;;;;8.73;2.08;;;;;;;;;;5038610;28;20103;-66
2022/05/02 15:46:37;;;;;;;;;;;;;;;;;;5038174;28;20040;-66
2022/05/02 15:49:07;;;;;;;6.03;1.70;;;;;;;;;;5037487;28;19924;-67
2022/05/02 15:51:42;;;;;;;4.50;1.80;;;;;;;;;;5037344;28;20052;-67
2022/05/02 15:54:21;;;;;;;8.18;1.80;;;;;;;;;;5039290;28;20417;-67
2022/05/02 15:57:06;;;;;;;10.05;2.20;;;;;;;;;;5038764;28;20041;-67